sensor_id;sensor_type;location;lat;lon;timestamp;P1;durP1;ratioP1;P2;durP2;ratioP2
7051;SDS011;3567;52.444;13.556;2022-12-18T00:00:42;105.20;;;30.90;;
7051;SDS011;3567;52.444;13.556;2022-12-18T00:03:24;123.37;;;32.30;;
7051;SDS011;3567;52.444;13.556;2022-12-18T00:05:52;112.33;;;32.70;;
7051;SDS011;3567;52.444;13.556;2022-12-18T00:08:18;144.03;;;34.03;;
7051;SDS011;3567;52.444;13.556;2022-12-18T00:10:44;140.83;;;35.10;;
7051;SDS011;3567;52.444;13.556;2022-12-18T00:13:12;131.20;;;31.20;;
7051;SDS011;3567;52.444;13.556;2022-12-18T00:15:38;93.17;;;28.73;;
7051;SDS011;3567;52.444;13.556;2022-12-18T00:18:04;161.63;;;31.13;;
7051;SDS011;3567;52.444;13.556;2022-12-18T00:20:30;107.67;;;31.20;;
7051;SDS011;3567;52.444;13.556;2022-12-18T00:22:56;114.20;;;31.20;;
7051;SDS011;3567;52.444;13.556;2022-12-18T00:25:21;97.27;;;28.53;;
7051;SDS011;3567;52.444;13.556;2022-12-18T00:27:47;104.10;;;29.47;;
7051;SDS011;3567;52.444;13.556;2022-12-18T00:30:12;111.40;;;30.20;;
7051;SDS011;3567;52.444;13.556;2022-12-18T00:32:38;105.87;;;31.90;;
7051;SDS011;3567;52.444;13.556;2022-12-18T00:35:04;102.60;;;30.57;;
7051;SDS011;3567;52.444;13.556;2022-12-18T00:37:30;98.23;;;30.50;;
7051;SDS011;3567;52.444;13.556;2022-12-18T00:39:56;106.57;;;31.13;;
7051;SDS011;3567;52.444;13.556;2022-12-18T00:42:21;99.47;;;29.83;;
7051;SDS011;3567;52.444;13.556;2022-12-18T00:45:19;102.80;;;29.17;;
7051;SDS011;3567;52.444;13.556;2022-12-18T00:47:44;95.90;;;29.73;;
7051;SDS011;3567;52.444;13.556;2022-12-18T00:50:10;91.27;;;29.47;;
7051;SDS011;3567;52.444;13.556;2022-12-18T00:52:35;86.40;;;29.37;;
7051;SDS011;3567;52.444;13.556;2022-12-18T00:55:01;96.73;;;29.37;;
7051;SDS011;3567;52.444;13.556;2022-12-18T00:57:26;93.53;;;29.70;;
7051;SDS011;3567;52.444;13.556;2022-12-18T00:59:51;102.60;;;30.03;;
7051;SDS011;3567;52.444;13.556;2022-12-18T01:02:17;103.60;;;30.13;;
7051;SDS011;3567;52.444;13.556;2022-12-18T01:04:42;76.43;;;24.37;;
7051;SDS011;3567;52.444;13.556;2022-12-18T01:07:08;81.80;;;25.30;;
7051;SDS011;3567;52.444;13.556;2022-12-18T01:09:33;73.90;;;22.40;;
7051;SDS011;3567;52.444;13.556;2022-12-18T01:11:59;79.80;;;23.03;;
7051;SDS011;3567;52.444;13.556;2022-12-18T01:14:25;69.73;;;23.20;;
7051;SDS011;3567;52.444;13.556;2022-12-18T01:16:50;76.37;;;23.50;;
7051;SDS011;3567;52.444;13.556;2022-12-18T01:19:15;78.47;;;24.50;;
7051;SDS011;3567;52.444;13.556;2022-12-18T01:21:41;71.37;;;22.23;;
7051;SDS011;3567;52.444;13.556;2022-12-18T01:24:06;71.57;;;26.80;;
7051;SDS011;3567;52.444;13.556;2022-12-18T01:26:32;70.43;;;22.87;;
7051;SDS011;3567;52.444;13.556;2022-12-18T01:28:57;75.60;;;23.47;;
7051;SDS011;3567;52.444;13.556;2022-12-18T01:31:26;66.13;;;23.83;;
7051;SDS011;3567;52.444;13.556;2022-12-18T01:33:54;78.43;;;23.00;;
7051;SDS011;3567;52.444;13.556;2022-12-18T01:36:24;80.13;;;23.73;;
7051;SDS011;3567;52.444;13.556;2022-12-18T01:38:51;64.53;;;23.43;;
7051;SDS011;3567;52.444;13.556;2022-12-18T01:41:19;63.43;;;22.70;;
7051;SDS011;3567;52.444;13.556;2022-12-18T01:46:17;69.63;;;22.70;;
7051;SDS011;3567;52.444;13.556;2022-12-18T01:48:44;62.97;;;22.43;;
7051;SDS011;3567;52.444;13.556;2022-12-18T01:51:13;60.63;;;21.03;;
7051;SDS011;3567;52.444;13.556;2022-12-18T01:53:39;69.03;;;20.60;;
7051;SDS011;3567;52.444;13.556;2022-12-18T01:56:06;56.80;;;20.87;;
7051;SDS011;3567;52.444;13.556;2022-12-18T02:01:06;68.03;;;24.07;;
7051;SDS011;3567;52.444;13.556;2022-12-18T02:03:31;57.00;;;20.27;;
7051;SDS011;3567;52.444;13.556;2022-12-18T02:11:12;66.80;;;24.43;;
7051;SDS011;3567;52.444;13.556;2022-12-18T02:16:57;64.20;;;22.27;;
7051;SDS011;3567;52.444;13.556;2022-12-18T02:22:17;69.43;;;23.07;;
7051;SDS011;3567;52.444;13.556;2022-12-18T02:27:30;61.10;;;21.57;;
7051;SDS011;3567;52.444;13.556;2022-12-18T02:29:59;55.87;;;24.03;;
7051;SDS011;3567;52.444;13.556;2022-12-18T02:32:34;61.30;;;22.80;;
7051;SDS011;3567;52.444;13.556;2022-12-18T02:35:04;71.47;;;23.90;;
7051;SDS011;3567;52.444;13.556;2022-12-18T02:37:32;65.63;;;23.40;;
7051;SDS011;3567;52.444;13.556;2022-12-18T02:40:00;67.70;;;22.70;;
7051;SDS011;3567;52.444;13.556;2022-12-18T02:42:28;58.67;;;22.17;;
7051;SDS011;3567;52.444;13.556;2022-12-18T02:44:54;70.53;;;23.63;;
7051;SDS011;3567;52.444;13.556;2022-12-18T02:47:20;57.77;;;22.00;;
7051;SDS011;3567;52.444;13.556;2022-12-18T02:55:08;52.80;;;21.90;;
7051;SDS011;3567;52.444;13.556;2022-12-18T02:57:57;66.70;;;21.83;;
7051;SDS011;3567;52.444;13.556;2022-12-18T03:03:06;59.17;;;21.60;;
7051;SDS011;3567;52.444;13.556;2022-12-18T03:05:44;56.37;;;21.97;;
7051;SDS011;3567;52.444;13.556;2022-12-18T03:08:18;62.30;;;22.30;;
7051;SDS011;3567;52.444;13.556;2022-12-18T03:11:04;69.40;;;22.87;;
7051;SDS011;3567;52.444;13.556;2022-12-18T03:13:37;62.20;;;23.00;;
7051;SDS011;3567;52.444;13.556;2022-12-18T03:16:10;56.70;;;20.43;;
7051;SDS011;3567;52.444;13.556;2022-12-18T03:21:14;56.57;;;21.07;;
7051;SDS011;3567;52.444;13.556;2022-12-18T03:23:44;58.33;;;20.97;;
7051;SDS011;3567;52.444;13.556;2022-12-18T03:26:15;80.73;;;21.67;;
7051;SDS011;3567;52.444;13.556;2022-12-18T03:28:50;54.20;;;21.10;;
7051;SDS011;3567;52.444;13.556;2022-12-18T03:31:19;51.37;;;20.50;;
7051;SDS011;3567;52.444;13.556;2022-12-18T03:33:52;72.57;;;23.57;;
7051;SDS011;3567;52.444;13.556;2022-12-18T03:36:20;57.73;;;19.60;;
7051;SDS011;3567;52.444;13.556;2022-12-18T03:38:46;67.70;;;21.33;;
7051;SDS011;3567;52.444;13.556;2022-12-18T03:43:50;67.03;;;22.83;;
7051;SDS011;3567;52.444;13.556;2022-12-18T03:46:30;59.60;;;23.53;;
7051;SDS011;3567;52.444;13.556;2022-12-18T03:49:11;62.03;;;20.17;;
7051;SDS011;3567;52.444;13.556;2022-12-18T03:54:49;53.53;;;19.13;;
7051;SDS011;3567;52.444;13.556;2022-12-18T03:57:16;59.63;;;21.00;;
7051;SDS011;3567;52.444;13.556;2022-12-18T03:59:45;54.70;;;20.27;;
7051;SDS011;3567;52.444;13.556;2022-12-18T04:02:15;63.30;;;21.27;;
7051;SDS011;3567;52.444;13.556;2022-12-18T04:04:42;50.33;;;20.83;;
7051;SDS011;3567;52.444;13.556;2022-12-18T04:07:08;59.13;;;20.67;;
7051;SDS011;3567;52.444;13.556;2022-12-18T04:09:35;65.13;;;22.20;;
7051;SDS011;3567;52.444;13.556;2022-12-18T04:12:02;63.03;;;21.70;;
7051;SDS011;3567;52.444;13.556;2022-12-18T04:14:27;62.03;;;23.13;;
7051;SDS011;3567;52.444;13.556;2022-12-18T04:16:53;52.63;;;20.63;;
7051;SDS011;3567;52.444;13.556;2022-12-18T04:19:18;58.30;;;20.63;;
7051;SDS011;3567;52.444;13.556;2022-12-18T04:21:44;58.90;;;20.03;;
7051;SDS011;3567;52.444;13.556;2022-12-18T04:24:09;49.23;;;18.77;;
7051;SDS011;3567;52.444;13.556;2022-12-18T04:26:34;50.83;;;19.80;;
7051;SDS011;3567;52.444;13.556;2022-12-18T04:29:00;53.30;;;20.03;;
7051;SDS011;3567;52.444;13.556;2022-12-18T04:31:25;47.30;;;18.97;;
7051;SDS011;3567;52.444;13.556;2022-12-18T04:33:51;48.47;;;20.70;;
7051;SDS011;3567;52.444;13.556;2022-12-18T04:36:16;53.50;;;19.60;;
7051;SDS011;3567;52.444;13.556;2022-12-18T04:38:42;55.47;;;20.80;;
7051;SDS011;3567;52.444;13.556;2022-12-18T04:41:07;49.30;;;18.87;;
7051;SDS011;3567;52.444;13.556;2022-12-18T04:43:33;59.30;;;21.20;;
7051;SDS011;3567;52.444;13.556;2022-12-18T04:46:02;67.60;;;21.33;;
7051;SDS011;3567;52.444;13.556;2022-12-18T04:48:31;56.13;;;21.50;;
7051;SDS011;3567;52.444;13.556;2022-12-18T04:50:57;58.53;;;20.33;;
7051;SDS011;3567;52.444;13.556;2022-12-18T04:53:22;67.93;;;21.93;;
7051;SDS011;3567;52.444;13.556;2022-12-18T04:55:48;54.17;;;20.43;;
7051;SDS011;3567;52.444;13.556;2022-12-18T04:58:13;60.30;;;19.97;;
7051;SDS011;3567;52.444;13.556;2022-12-18T05:00:39;62.57;;;20.93;;
7051;SDS011;3567;52.444;13.556;2022-12-18T05:03:04;73.27;;;21.17;;
7051;SDS011;3567;52.444;13.556;2022-12-18T05:05:29;64.83;;;22.90;;
7051;SDS011;3567;52.444;13.556;2022-12-18T05:07:55;61.43;;;21.67;;
7051;SDS011;3567;52.444;13.556;2022-12-18T05:10:20;64.70;;;21.17;;
7051;SDS011;3567;52.444;13.556;2022-12-18T05:12:45;63.10;;;20.30;;
7051;SDS011;3567;52.444;13.556;2022-12-18T05:15:23;64.17;;;21.27;;
7051;SDS011;3567;52.444;13.556;2022-12-18T05:17:52;82.43;;;25.40;;
7051;SDS011;3567;52.444;13.556;2022-12-18T05:20:18;69.43;;;22.47;;
7051;SDS011;3567;52.444;13.556;2022-12-18T05:22:43;81.90;;;21.90;;
7051;SDS011;3567;52.444;13.556;2022-12-18T05:25:09;81.77;;;25.20;;
7051;SDS011;3567;52.444;13.556;2022-12-18T05:27:34;65.37;;;23.57;;
7051;SDS011;3567;52.444;13.556;2022-12-18T05:29:59;78.50;;;24.80;;
7051;SDS011;3567;52.444;13.556;2022-12-18T05:32:25;75.30;;;24.47;;
7051;SDS011;3567;52.444;13.556;2022-12-18T05:34:50;87.30;;;25.20;;
7051;SDS011;3567;52.444;13.556;2022-12-18T05:37:15;79.67;;;22.93;;
7051;SDS011;3567;52.444;13.556;2022-12-18T05:39:42;73.80;;;23.33;;
7051;SDS011;3567;52.444;13.556;2022-12-18T05:42:07;78.97;;;24.00;;
7051;SDS011;3567;52.444;13.556;2022-12-18T05:44:33;83.93;;;26.90;;
7051;SDS011;3567;52.444;13.556;2022-12-18T05:46:58;75.33;;;24.47;;
7051;SDS011;3567;52.444;13.556;2022-12-18T05:49:24;85.07;;;24.87;;
7051;SDS011;3567;52.444;13.556;2022-12-18T05:51:49;93.57;;;28.57;;
7051;SDS011;3567;52.444;13.556;2022-12-18T05:54:15;84.50;;;25.27;;
7051;SDS011;3567;52.444;13.556;2022-12-18T05:56:40;104.00;;;28.33;;
7051;SDS011;3567;52.444;13.556;2022-12-18T05:59:05;86.63;;;25.73;;
7051;SDS011;3567;52.444;13.556;2022-12-18T06:01:30;109.93;;;27.37;;
7051;SDS011;3567;52.444;13.556;2022-12-18T06:03:56;77.13;;;24.10;;
7051;SDS011;3567;52.444;13.556;2022-12-18T06:06:22;82.47;;;25.10;;
7051;SDS011;3567;52.444;13.556;2022-12-18T06:08:49;70.90;;;23.90;;
7051;SDS011;3567;52.444;13.556;2022-12-18T06:11:16;82.03;;;23.33;;
7051;SDS011;3567;52.444;13.556;2022-12-18T06:13:43;80.50;;;24.47;;
7051;SDS011;3567;52.444;13.556;2022-12-18T06:16:09;69.73;;;23.00;;
7051;SDS011;3567;52.444;13.556;2022-12-18T06:18:37;75.93;;;23.97;;
7051;SDS011;3567;52.444;13.556;2022-12-18T06:21:03;71.43;;;24.27;;
7051;SDS011;3567;52.444;13.556;2022-12-18T06:23:29;70.77;;;23.27;;
7051;SDS011;3567;52.444;13.556;2022-12-18T06:25:54;84.60;;;25.43;;
7051;SDS011;3567;52.444;13.556;2022-12-18T06:28:19;79.07;;;24.27;;
7051;SDS011;3567;52.444;13.556;2022-12-18T06:30:45;71.70;;;24.20;;
7051;SDS011;3567;52.444;13.556;2022-12-18T06:33:13;93.00;;;26.60;;
7051;SDS011;3567;52.444;13.556;2022-12-18T06:35:39;87.03;;;26.73;;
7051;SDS011;3567;52.444;13.556;2022-12-18T06:38:04;70.03;;;23.53;;
7051;SDS011;3567;52.444;13.556;2022-12-18T06:40:30;83.23;;;25.70;;
7051;SDS011;3567;52.444;13.556;2022-12-18T06:42:55;82.90;;;24.50;;
7051;SDS011;3567;52.444;13.556;2022-12-18T06:45:21;87.43;;;27.50;;
7051;SDS011;3567;52.444;13.556;2022-12-18T06:47:46;93.00;;;26.10;;
7051;SDS011;3567;52.444;13.556;2022-12-18T06:50:12;74.30;;;25.17;;
7051;SDS011;3567;52.444;13.556;2022-12-18T06:52:38;76.20;;;27.33;;
7051;SDS011;3567;52.444;13.556;2022-12-18T06:55:05;89.90;;;23.70;;
7051;SDS011;3567;52.444;13.556;2022-12-18T06:57:34;81.07;;;25.17;;
7051;SDS011;3567;52.444;13.556;2022-12-18T07:00:00;82.60;;;26.73;;
7051;SDS011;3567;52.444;13.556;2022-12-18T07:02:25;94.83;;;29.10;;
7051;SDS011;3567;52.444;13.556;2022-12-18T07:04:50;62.57;;;23.27;;
7051;SDS011;3567;52.444;13.556;2022-12-18T07:07:16;65.17;;;23.57;;
7051;SDS011;3567;52.444;13.556;2022-12-18T07:09:41;64.37;;;21.53;;
7051;SDS011;3567;52.444;13.556;2022-12-18T07:12:07;59.83;;;20.10;;
7051;SDS011;3567;52.444;13.556;2022-12-18T07:14:33;62.37;;;22.67;;
7051;SDS011;3567;52.444;13.556;2022-12-18T07:16:58;67.70;;;20.80;;
7051;SDS011;3567;52.444;13.556;2022-12-18T07:19:23;76.93;;;25.00;;
7051;SDS011;3567;52.444;13.556;2022-12-18T07:21:49;74.67;;;24.47;;
7051;SDS011;3567;52.444;13.556;2022-12-18T07:24:15;62.87;;;22.83;;
7051;SDS011;3567;52.444;13.556;2022-12-18T07:26:40;58.07;;;22.17;;
7051;SDS011;3567;52.444;13.556;2022-12-18T07:29:06;62.47;;;20.47;;
7051;SDS011;3567;52.444;13.556;2022-12-18T07:31:31;75.80;;;29.10;;
7051;SDS011;3567;52.444;13.556;2022-12-18T07:33:56;57.77;;;23.50;;
7051;SDS011;3567;52.444;13.556;2022-12-18T07:36:22;57.93;;;20.97;;
7051;SDS011;3567;52.444;13.556;2022-12-18T07:38:47;62.97;;;22.20;;
7051;SDS011;3567;52.444;13.556;2022-12-18T07:41:14;55.47;;;21.03;;
7051;SDS011;3567;52.444;13.556;2022-12-18T07:43:40;50.00;;;20.27;;
7051;SDS011;3567;52.444;13.556;2022-12-18T07:46:06;54.00;;;20.57;;
7051;SDS011;3567;52.444;13.556;2022-12-18T07:48:33;63.03;;;20.77;;
7051;SDS011;3567;52.444;13.556;2022-12-18T07:50:59;57.03;;;20.93;;
7051;SDS011;3567;52.444;13.556;2022-12-18T07:53:25;62.90;;;20.67;;
7051;SDS011;3567;52.444;13.556;2022-12-18T07:55:57;58.07;;;21.30;;
7051;SDS011;3567;52.444;13.556;2022-12-18T07:58:45;67.83;;;20.93;;
7051;SDS011;3567;52.444;13.556;2022-12-18T08:01:16;58.10;;;21.03;;
7051;SDS011;3567;52.444;13.556;2022-12-18T08:03:41;51.70;;;20.13;;
7051;SDS011;3567;52.444;13.556;2022-12-18T08:06:08;61.47;;;21.00;;
7051;SDS011;3567;52.444;13.556;2022-12-18T08:08:40;56.10;;;20.63;;
7051;SDS011;3567;52.444;13.556;2022-12-18T08:11:08;56.73;;;20.00;;
7051;SDS011;3567;52.444;13.556;2022-12-18T08:13:33;59.60;;;20.40;;
7051;SDS011;3567;52.444;13.556;2022-12-18T08:16:00;57.87;;;20.47;;
7051;SDS011;3567;52.444;13.556;2022-12-18T08:18:27;56.13;;;20.07;;
7051;SDS011;3567;52.444;13.556;2022-12-18T08:20:52;60.80;;;21.10;;
7051;SDS011;3567;52.444;13.556;2022-12-18T08:23:18;50.77;;;21.30;;
7051;SDS011;3567;52.444;13.556;2022-12-18T08:25:43;59.47;;;21.73;;
7051;SDS011;3567;52.444;13.556;2022-12-18T08:28:16;61.13;;;21.13;;
7051;SDS011;3567;52.444;13.556;2022-12-18T08:30:41;64.93;;;24.17;;
7051;SDS011;3567;52.444;13.556;2022-12-18T08:33:10;61.10;;;21.13;;
7051;SDS011;3567;52.444;13.556;2022-12-18T08:35:36;65.53;;;22.27;;
7051;SDS011;3567;52.444;13.556;2022-12-18T08:38:02;61.50;;;20.60;;
7051;SDS011;3567;52.444;13.556;2022-12-18T08:40:28;61.37;;;20.47;;
7051;SDS011;3567;52.444;13.556;2022-12-18T08:42:54;61.13;;;23.20;;
7051;SDS011;3567;52.444;13.556;2022-12-18T08:45:38;62.50;;;20.93;;
7051;SDS011;3567;52.444;13.556;2022-12-18T08:48:03;66.73;;;22.03;;
7051;SDS011;3567;52.444;13.556;2022-12-18T08:50:29;73.93;;;25.57;;
7051;SDS011;3567;52.444;13.556;2022-12-18T08:53:03;63.27;;;23.73;;
7051;SDS011;3567;52.444;13.556;2022-12-18T08:55:31;67.50;;;21.67;;
7051;SDS011;3567;52.444;13.556;2022-12-18T08:57:57;59.03;;;21.97;;
7051;SDS011;3567;52.444;13.556;2022-12-18T09:00:22;73.87;;;22.03;;
7051;SDS011;3567;52.444;13.556;2022-12-18T09:02:49;69.03;;;22.03;;
7051;SDS011;3567;52.444;13.556;2022-12-18T09:05:14;70.17;;;22.80;;
7051;SDS011;3567;52.444;13.556;2022-12-18T09:07:39;63.73;;;22.97;;
7051;SDS011;3567;52.444;13.556;2022-12-18T09:10:05;80.63;;;25.90;;
7051;SDS011;3567;52.444;13.556;2022-12-18T09:12:31;73.03;;;23.23;;
7051;SDS011;3567;52.444;13.556;2022-12-18T09:17:44;69.33;;;22.90;;
7051;SDS011;3567;52.444;13.556;2022-12-18T09:20:09;71.50;;;24.33;;
7051;SDS011;3567;52.444;13.556;2022-12-18T09:22:35;72.87;;;23.77;;
7051;SDS011;3567;52.444;13.556;2022-12-18T09:25:02;84.30;;;26.53;;
7051;SDS011;3567;52.444;13.556;2022-12-18T09:27:33;76.20;;;23.83;;
7051;SDS011;3567;52.444;13.556;2022-12-18T09:29:59;71.87;;;23.90;;
7051;SDS011;3567;52.444;13.556;2022-12-18T09:32:25;81.33;;;24.30;;
7051;SDS011;3567;52.444;13.556;2022-12-18T09:34:52;78.57;;;23.73;;
7051;SDS011;3567;52.444;13.556;2022-12-18T09:37:34;72.43;;;24.00;;
7051;SDS011;3567;52.444;13.556;2022-12-18T09:40:20;77.17;;;25.63;;
7051;SDS011;3567;52.444;13.556;2022-12-18T09:42:58;67.20;;;23.27;;
7051;SDS011;3567;52.444;13.556;2022-12-18T09:49:12;65.87;;;24.67;;
7051;SDS011;3567;52.444;13.556;2022-12-18T09:51:49;72.20;;;23.67;;
7051;SDS011;3567;52.444;13.556;2022-12-18T09:54:20;79.43;;;23.90;;
7051;SDS011;3567;52.444;13.556;2022-12-18T09:56:50;80.63;;;24.53;;
7051;SDS011;3567;52.444;13.556;2022-12-18T09:59:27;74.70;;;26.50;;
7051;SDS011;3567;52.444;13.556;2022-12-18T10:02:00;87.70;;;27.90;;
7051;SDS011;3567;52.444;13.556;2022-12-18T10:04:25;87.63;;;25.53;;
7051;SDS011;3567;52.444;13.556;2022-12-18T10:07:16;79.33;;;25.37;;
7051;SDS011;3567;52.444;13.556;2022-12-18T10:15:05;74.13;;;26.50;;
7051;SDS011;3567;52.444;13.556;2022-12-18T10:20:30;84.53;;;27.40;;
7051;SDS011;3567;52.444;13.556;2022-12-18T10:26:04;68.85;;;25.20;;
7051;SDS011;3567;52.444;13.556;2022-12-18T10:28:32;76.93;;;24.33;;
7051;SDS011;3567;52.444;13.556;2022-12-18T10:31:01;63.50;;;22.33;;
7051;SDS011;3567;52.444;13.556;2022-12-18T10:33:28;66.32;;;23.48;;
7051;SDS011;3567;52.444;13.556;2022-12-18T10:35:54;54.83;;;22.77;;
7051;SDS011;3567;52.444;13.556;2022-12-18T10:38:21;63.28;;;22.60;;
7051;SDS011;3567;52.444;13.556;2022-12-18T10:41:05;61.03;;;23.50;;
7051;SDS011;3567;52.444;13.556;2022-12-18T10:43:42;69.57;;;24.77;;
7051;SDS011;3567;52.444;13.556;2022-12-18T10:48:40;56.97;;;22.52;;
7051;SDS011;3567;52.444;13.556;2022-12-18T10:51:21;59.13;;;22.73;;
7051;SDS011;3567;52.444;13.556;2022-12-18T10:53:56;50.03;;;21.67;;
7051;SDS011;3567;52.444;13.556;2022-12-18T10:56:26;61.83;;;23.23;;
7051;SDS011;3567;52.444;13.556;2022-12-18T11:01:25;60.97;;;21.50;;
7051;SDS011;3567;52.444;13.556;2022-12-18T11:06:18;45.87;;;19.17;;
7051;SDS011;3567;52.444;13.556;2022-12-18T11:11:24;48.43;;;20.80;;
7051;SDS011;3567;52.444;13.556;2022-12-18T11:16:28;50.97;;;20.53;;
7051;SDS011;3567;52.444;13.556;2022-12-18T11:18:59;48.17;;;20.63;;
7051;SDS011;3567;52.444;13.556;2022-12-18T11:21:41;50.93;;;20.30;;
7051;SDS011;3567;52.444;13.556;2022-12-18T11:24:13;57.00;;;20.60;;
7051;SDS011;3567;52.444;13.556;2022-12-18T11:26:45;46.57;;;19.00;;
7051;SDS011;3567;52.444;13.556;2022-12-18T11:29:15;49.17;;;21.00;;
7051;SDS011;3567;52.444;13.556;2022-12-18T11:31:42;50.38;;;20.50;;
7051;SDS011;3567;52.444;13.556;2022-12-18T11:37:03;79.13;;;33.00;;
7051;SDS011;3567;52.444;13.556;2022-12-18T11:42:11;43.95;;;19.55;;
7051;SDS011;3567;52.444;13.556;2022-12-18T11:44:39;80.97;;;32.83;;
7051;SDS011;3567;52.444;13.556;2022-12-18T11:47:28;61.00;;;25.25;;
7051;SDS011;3567;52.444;13.556;2022-12-18T11:50:00;42.38;;;18.42;;
7051;SDS011;3567;52.444;13.556;2022-12-18T11:55:00;42.10;;;17.83;;
7051;SDS011;3567;52.444;13.556;2022-12-18T11:57:38;45.10;;;18.83;;
7051;SDS011;3567;52.444;13.556;2022-12-18T12:00:18;47.53;;;18.87;;
7051;SDS011;3567;52.444;13.556;2022-12-18T12:06:01;46.42;;;19.05;;
7051;SDS011;3567;52.444;13.556;2022-12-18T12:19:46;43.07;;;19.77;;
7051;SDS011;3567;52.444;13.556;2022-12-18T12:55:05;47.07;;;20.77;;
7051;SDS011;3567;52.444;13.556;2022-12-18T12:57:42;44.77;;;22.17;;
7051;SDS011;3567;52.444;13.556;2022-12-18T13:00:17;54.30;;;22.03;;
7051;SDS011;3567;52.444;13.556;2022-12-18T13:08:10;52.43;;;22.80;;
7051;SDS011;3567;52.444;13.556;2022-12-18T13:10:57;47.63;;;23.50;;
7051;SDS011;3567;52.444;13.556;2022-12-18T13:13:52;51.42;;;21.88;;
7051;SDS011;3567;52.444;13.556;2022-12-18T13:16:21;44.88;;;21.27;;
7051;SDS011;3567;52.444;13.556;2022-12-18T13:18:48;52.77;;;23.80;;
7051;SDS011;3567;52.444;13.556;2022-12-18T13:23:50;45.50;;;23.73;;
7051;SDS011;3567;52.444;13.556;2022-12-18T13:34:18;51.17;;;24.33;;
7051;SDS011;3567;52.444;13.556;2022-12-18T13:36:45;54.90;;;24.60;;
7051;SDS011;3567;52.444;13.556;2022-12-18T13:41:38;48.83;;;25.33;;
7051;SDS011;3567;52.444;13.556;2022-12-18T13:44:11;53.50;;;24.40;;
7051;SDS011;3567;52.444;13.556;2022-12-18T13:46:47;46.00;;;23.73;;
7051;SDS011;3567;52.444;13.556;2022-12-18T13:49:22;61.42;;;28.27;;
7051;SDS011;3567;52.444;13.556;2022-12-18T13:51:58;65.05;;;27.90;;
7051;SDS011;3567;52.444;13.556;2022-12-18T13:56:59;45.65;;;21.52;;
7051;SDS011;3567;52.444;13.556;2022-12-18T13:59:26;53.70;;;25.25;;
7051;SDS011;3567;52.444;13.556;2022-12-18T14:01:59;47.97;;;23.67;;
7051;SDS011;3567;52.444;13.556;2022-12-18T14:04:31;49.77;;;22.43;;
7051;SDS011;3567;52.444;13.556;2022-12-18T14:07:03;49.10;;;23.80;;
7051;SDS011;3567;52.444;13.556;2022-12-18T14:09:34;42.37;;;21.23;;
7051;SDS011;3567;52.444;13.556;2022-12-18T14:12:01;35.95;;;20.60;;
7051;SDS011;3567;52.444;13.556;2022-12-18T14:14:56;40.23;;;20.13;;
7051;SDS011;3567;52.444;13.556;2022-12-18T14:17:22;40.50;;;20.13;;
7051;SDS011;3567;52.444;13.556;2022-12-18T14:19:48;42.42;;;19.98;;
7051;SDS011;3567;52.444;13.556;2022-12-18T14:22:19;49.13;;;24.13;;
7051;SDS011;3567;52.444;13.556;2022-12-18T14:25:05;36.57;;;19.37;;
7051;SDS011;3567;52.444;13.556;2022-12-18T14:27:44;39.13;;;22.00;;
7051;SDS011;3567;52.444;13.556;2022-12-18T14:35:27;40.17;;;19.87;;
7051;SDS011;3567;52.444;13.556;2022-12-18T14:37:53;48.40;;;20.50;;
7051;SDS011;3567;52.444;13.556;2022-12-18T14:40:19;44.67;;;20.70;;
7051;SDS011;3567;52.444;13.556;2022-12-18T14:42:44;39.07;;;21.07;;
7051;SDS011;3567;52.444;13.556;2022-12-18T14:48:06;42.03;;;21.90;;
7051;SDS011;3567;52.444;13.556;2022-12-18T14:53:18;43.40;;;22.93;;
7051;SDS011;3567;52.444;13.556;2022-12-18T14:55:46;46.13;;;21.77;;
7051;SDS011;3567;52.444;13.556;2022-12-18T14:58:13;40.33;;;21.87;;
7051;SDS011;3567;52.444;13.556;2022-12-18T15:00:41;45.17;;;22.43;;
7051;SDS011;3567;52.444;13.556;2022-12-18T15:03:07;41.50;;;21.65;;
7051;SDS011;3567;52.444;13.556;2022-12-18T15:05:34;42.43;;;19.77;;
7051;SDS011;3567;52.444;13.556;2022-12-18T15:08:01;39.67;;;20.23;;
7051;SDS011;3567;52.444;13.556;2022-12-18T15:10:31;43.93;;;19.20;;
7051;SDS011;3567;52.444;13.556;2022-12-18T15:18:20;33.37;;;17.37;;
7051;SDS011;3567;52.444;13.556;2022-12-18T15:20:50;33.80;;;17.33;;
7051;SDS011;3567;52.444;13.556;2022-12-18T15:25:47;38.72;;;19.85;;
7051;SDS011;3567;52.444;13.556;2022-12-18T15:33:41;40.93;;;20.73;;
7051;SDS011;3567;52.444;13.556;2022-12-18T15:36:10;37.27;;;18.60;;
7051;SDS011;3567;52.444;13.556;2022-12-18T15:38:37;41.40;;;21.17;;
7051;SDS011;3567;52.444;13.556;2022-12-18T15:41:02;40.10;;;20.90;;
7051;SDS011;3567;52.444;13.556;2022-12-18T15:43:31;43.25;;;19.92;;
7051;SDS011;3567;52.444;13.556;2022-12-18T15:46:00;41.57;;;21.80;;
7051;SDS011;3567;52.444;13.556;2022-12-18T15:48:29;41.53;;;19.13;;
7051;SDS011;3567;52.444;13.556;2022-12-18T15:50:56;36.50;;;20.83;;
7051;SDS011;3567;52.444;13.556;2022-12-18T15:53:24;42.57;;;19.73;;
7051;SDS011;3567;52.444;13.556;2022-12-18T15:55:52;35.90;;;20.07;;
7051;SDS011;3567;52.444;13.556;2022-12-18T15:58:37;39.03;;;19.63;;
7051;SDS011;3567;52.444;13.556;2022-12-18T16:01:02;35.63;;;20.13;;
7051;SDS011;3567;52.444;13.556;2022-12-18T16:03:29;40.30;;;20.93;;
7051;SDS011;3567;52.444;13.556;2022-12-18T16:05:54;40.83;;;21.80;;
7051;SDS011;3567;52.444;13.556;2022-12-18T16:08:19;39.90;;;21.07;;
7051;SDS011;3567;52.444;13.556;2022-12-18T16:10:45;40.03;;;20.37;;
7051;SDS011;3567;52.444;13.556;2022-12-18T16:13:11;38.27;;;19.13;;
7051;SDS011;3567;52.444;13.556;2022-12-18T16:15:37;42.60;;;20.60;;
7051;SDS011;3567;52.444;13.556;2022-12-18T16:18:02;34.90;;;19.23;;
7051;SDS011;3567;52.444;13.556;2022-12-18T16:20:28;43.80;;;20.47;;
7051;SDS011;3567;52.444;13.556;2022-12-18T16:22:53;37.53;;;19.17;;
7051;SDS011;3567;52.444;13.556;2022-12-18T16:25:23;42.27;;;21.37;;
7051;SDS011;3567;52.444;13.556;2022-12-18T16:27:50;43.47;;;20.53;;
7051;SDS011;3567;52.444;13.556;2022-12-18T16:30:21;39.63;;;20.17;;
7051;SDS011;3567;52.444;13.556;2022-12-18T16:32:48;46.80;;;21.77;;
7051;SDS011;3567;52.444;13.556;2022-12-18T16:35:14;40.47;;;21.40;;
7051;SDS011;3567;52.444;13.556;2022-12-18T16:37:41;41.77;;;19.33;;
7051;SDS011;3567;52.444;13.556;2022-12-18T16:40:08;41.73;;;21.47;;
7051;SDS011;3567;52.444;13.556;2022-12-18T16:42:36;43.63;;;22.20;;
7051;SDS011;3567;52.444;13.556;2022-12-18T16:45:03;37.23;;;18.57;;
7051;SDS011;3567;52.444;13.556;2022-12-18T16:47:30;42.93;;;21.07;;
7051;SDS011;3567;52.444;13.556;2022-12-18T16:49:55;37.83;;;20.27;;
7051;SDS011;3567;52.444;13.556;2022-12-18T16:52:20;41.43;;;20.30;;
7051;SDS011;3567;52.444;13.556;2022-12-18T16:54:46;42.63;;;19.33;;
7051;SDS011;3567;52.444;13.556;2022-12-18T16:57:13;39.67;;;19.73;;
7051;SDS011;3567;52.444;13.556;2022-12-18T16:59:41;42.40;;;20.17;;
7051;SDS011;3567;52.444;13.556;2022-12-18T17:02:12;42.20;;;20.70;;
7051;SDS011;3567;52.444;13.556;2022-12-18T17:04:39;41.80;;;19.87;;
7051;SDS011;3567;52.444;13.556;2022-12-18T17:07:04;39.37;;;19.43;;
7051;SDS011;3567;52.444;13.556;2022-12-18T17:09:30;37.20;;;19.70;;
7051;SDS011;3567;52.444;13.556;2022-12-18T17:11:59;45.95;;;20.50;;
7051;SDS011;3567;52.444;13.556;2022-12-18T17:14:26;42.07;;;20.63;;
7051;SDS011;3567;52.444;13.556;2022-12-18T17:16:52;48.27;;;22.77;;
7051;SDS011;3567;52.444;13.556;2022-12-18T17:19:18;57.17;;;24.95;;
7051;SDS011;3567;52.444;13.556;2022-12-18T17:21:45;58.73;;;25.67;;
7051;SDS011;3567;52.444;13.556;2022-12-18T17:24:12;49.67;;;23.97;;
7051;SDS011;3567;52.444;13.556;2022-12-18T17:26:37;52.93;;;25.87;;